createdAt,value
2023-02-02T00:02:19.774Z,5.20
2023-02-02T00:04:50.020Z,5.21
2023-02-02T00:07:18.119Z,5.20
2023-02-02T00:09:47.393Z,5.21
2023-02-02T00:12:15.451Z,5.24
2023-02-02T00:14:43.429Z,5.22
2023-02-02T00:17:14.297Z,5.20
2023-02-02T00:19:42.467Z,5.19
2023-02-02T00:22:10.678Z,5.21
2023-02-02T00:24:38.533Z,5.22
2023-02-02T00:27:07.982Z,5.25
2023-02-02T00:29:39.749Z,5.24
2023-02-02T00:32:07.962Z,5.23
2023-02-02T00:34:36.063Z,5.24
2023-02-02T00:37:06.684Z,5.29
2023-02-02T00:39:35.196Z,5.30
2023-02-02T00:42:03.374Z,5.27
2023-02-02T00:44:50.187Z,5.22
2023-02-02T00:47:18.519Z,5.21
2023-02-02T00:49:46.580Z,5.16
2023-02-02T00:52:14.857Z,5.17
2023-02-02T00:54:42.944Z,5.15
2023-02-02T00:57:14.098Z,5.18
2023-02-02T00:59:43.849Z,5.19
2023-02-02T01:02:12.930Z,5.22
2023-02-02T01:04:41.391Z,5.20
2023-02-02T01:07:09.778Z,5.15
2023-02-02T01:09:38.000Z,5.18
2023-02-02T01:12:06.787Z,5.21
2023-02-02T01:14:35.099Z,5.20
2023-02-02T01:17:05.300Z,5.22
2023-02-02T01:19:33.711Z,5.22
2023-02-02T01:22:03.461Z,5.33
2023-02-02T01:24:32.053Z,5.37
2023-02-02T01:27:00.081Z,5.41
2023-02-02T01:29:28.296Z,5.43
2023-02-02T01:31:56.268Z,5.40
2023-02-02T01:34:28.137Z,5.51
2023-02-02T01:36:56.097Z,5.52
2023-02-02T01:39:24.739Z,5.57
2023-02-02T01:41:53.035Z,5.56
2023-02-02T01:45:05.017Z,5.55
2023-02-02T01:47:38.852Z,5.63
2023-02-02T01:50:10.980Z,5.64
2023-02-02T01:52:43.973Z,5.70
2023-02-02T01:55:15.467Z,5.67
2023-02-02T01:57:46.686Z,5.64
2023-02-02T02:00:17.441Z,5.66
2023-02-02T02:02:50.048Z,5.69
2023-02-02T02:05:28.007Z,5.74
2023-02-02T02:08:03.731Z,5.70
2023-02-02T02:10:31.803Z,5.66
2023-02-02T02:13:00.115Z,5.69
2023-02-02T02:15:50.522Z,5.66
2023-02-02T02:18:28.625Z,5.64
2023-02-02T02:21:50.703Z,5.65
2023-02-02T02:25:17.094Z,5.66
2023-02-02T02:28:27.941Z,5.64
2023-02-02T02:31:07.904Z,5.63
2023-02-02T02:33:47.462Z,5.64
2023-02-02T02:36:21.268Z,5.62
2023-02-02T02:38:57.837Z,5.59
2023-02-02T02:41:30.954Z,5.57
2023-02-02T02:44:03.384Z,5.64
2023-02-02T02:46:33.248Z,5.59
2023-02-02T02:49:03.186Z,5.54
2023-02-02T02:51:45.036Z,5.43
2023-02-02T02:54:22.302Z,5.42
2023-02-02T02:57:11.157Z,5.51
2023-02-02T02:59:48.780Z,5.53
2023-02-02T03:02:30.108Z,5.53
2023-02-02T03:05:13.393Z,5.49
2023-02-02T03:07:48.526Z,5.50
2023-02-02T03:10:20.359Z,5.47
2023-02-02T03:12:50.180Z,5.46
2023-02-02T03:15:19.183Z,5.40
2023-02-02T03:17:50.141Z,5.48
2023-02-02T03:20:20.099Z,5.44
2023-02-02T03:22:50.960Z,5.43
2023-02-02T03:25:19.323Z,5.32
2023-02-02T03:27:47.355Z,5.36
2023-02-02T03:30:15.737Z,5.37
2023-02-02T03:32:47.782Z,5.35
2023-02-02T03:35:20.774Z,5.34
2023-02-02T03:37:49.016Z,5.41
2023-02-02T03:40:19.464Z,5.38
2023-02-02T03:42:47.475Z,5.41
2023-02-02T03:48:29.490Z,5.30
2023-02-02T03:50:57.763Z,5.26
2023-02-02T03:53:26.031Z,5.22
2023-02-02T03:55:54.930Z,5.22
2023-02-02T03:58:23.063Z,5.21
2023-02-02T04:00:55.496Z,5.21
2023-02-02T04:03:26.323Z,5.28
2023-02-02T04:05:55.573Z,5.27
2023-02-02T04:08:23.634Z,5.26
2023-02-02T04:10:54.145Z,5.32
2023-02-02T04:13:27.012Z,5.31
2023-02-02T04:15:58.980Z,5.25
2023-02-02T04:18:30.082Z,5.27
2023-02-02T04:21:00.253Z,5.27
2023-02-02T04:23:32.232Z,5.28
2023-02-02T04:26:00.994Z,5.38
2023-02-02T04:28:29.908Z,5.38
2023-02-02T04:30:58.222Z,5.36
2023-02-02T04:33:28.661Z,5.32
2023-02-02T04:35:56.652Z,5.30
2023-02-02T04:38:26.171Z,5.32
2023-02-02T04:40:54.278Z,5.29
2023-02-02T04:43:22.271Z,5.24
2023-02-02T04:45:56.406Z,5.25
2023-02-02T04:48:26.839Z,5.32
2023-02-02T04:51:00.332Z,5.36
2023-02-02T04:53:30.438Z,5.40
2023-02-02T04:55:59.242Z,5.41
2023-02-02T04:58:29.909Z,5.42
2023-02-02T05:00:57.781Z,5.43
2023-02-02T05:03:26.010Z,5.47
2023-02-02T05:06:02.394Z,5.48
2023-02-02T05:08:32.101Z,5.43
2023-02-02T05:11:06.707Z,5.39
2023-02-02T05:13:34.964Z,5.49
2023-02-02T05:16:03.043Z,5.48
2023-02-02T05:18:33.543Z,5.47
2023-02-02T05:21:01.843Z,5.48
2023-02-02T05:23:31.901Z,5.47
2023-02-02T05:26:02.005Z,5.43
2023-02-02T05:28:30.574Z,5.44
2023-02-02T05:30:59.075Z,5.40
2023-02-02T05:33:27.366Z,5.41
2023-02-02T05:35:57.626Z,5.37
2023-02-02T05:38:25.746Z,5.34
2023-02-02T05:40:55.032Z,5.33
2023-02-02T05:43:26.045Z,5.35
2023-02-02T05:45:54.048Z,5.41
2023-02-02T05:48:22.405Z,5.36
2023-02-02T05:51:00.042Z,5.35
2023-02-02T05:53:29.679Z,5.35
2023-02-02T05:55:59.589Z,5.33
2023-02-02T05:58:28.392Z,5.36
2023-02-02T06:00:56.898Z,5.32
2023-02-02T06:03:27.336Z,5.32
2023-02-02T06:05:55.654Z,5.34
2023-02-02T06:08:23.825Z,5.30
2023-02-02T06:10:51.756Z,5.27
2023-02-02T06:13:21.216Z,5.24
2023-02-02T06:15:49.216Z,5.22
2023-02-02T06:18:19.665Z,5.22
2023-02-02T06:20:50.208Z,5.24
2023-02-02T06:23:18.272Z,5.20
2023-02-02T06:25:46.094Z,5.12
2023-02-02T06:28:16.549Z,5.19
2023-02-02T06:30:46.033Z,5.16
2023-02-02T06:33:14.372Z,5.14
2023-02-02T06:35:42.320Z,5.12
2023-02-02T06:38:12.646Z,5.12
2023-02-02T06:40:40.528Z,5.15
2023-02-02T06:43:09.107Z,5.21
2023-02-02T06:45:40.159Z,5.19
2023-02-02T06:48:14.522Z,5.23
2023-02-02T06:50:42.586Z,5.26
2023-02-02T06:53:10.854Z,5.27
2023-02-02T06:55:41.678Z,5.29
2023-02-02T06:58:10.148Z,5.29
2023-02-02T07:00:40.262Z,5.35
2023-02-02T07:03:08.687Z,5.34
2023-02-02T07:05:43.145Z,5.36
2023-02-02T07:08:11.230Z,5.36
2023-02-02T07:11:12.800Z,5.25
2023-02-02T07:13:30.567Z,5.32
2023-02-02T07:15:58.604Z,5.31
2023-02-02T07:18:27.171Z,5.35
2023-02-02T07:20:59.120Z,5.32
2023-02-02T07:23:27.705Z,5.34
2023-02-02T07:26:03.089Z,5.36
2023-02-02T07:28:31.366Z,5.36
2023-02-02T07:31:00.144Z,5.36
2023-02-02T07:33:28.288Z,5.39
2023-02-02T07:35:57.616Z,5.43
2023-02-02T07:38:25.561Z,5.43
2023-02-02T07:40:53.707Z,5.40
2023-02-02T07:43:21.623Z,5.44
2023-02-02T07:45:49.785Z,5.44
2023-02-02T07:48:18.159Z,5.46
2023-02-02T07:50:46.490Z,5.52
2023-02-02T07:53:15.739Z,5.55
2023-02-02T07:55:43.934Z,5.63
2023-02-02T07:58:11.821Z,5.63
2023-02-02T08:00:40.067Z,5.67
2023-02-02T08:03:12.169Z,5.74
2023-02-02T08:05:40.828Z,5.74
2023-02-02T08:08:15.033Z,5.78
2023-02-02T08:10:49.010Z,5.74
2023-02-02T08:13:16.934Z,5.77
2023-02-02T08:15:45.007Z,5.73
2023-02-02T08:18:15.928Z,5.74
2023-02-02T08:20:44.142Z,5.81
2023-02-02T08:23:15.743Z,5.80
2023-02-02T08:25:49.700Z,5.87
2023-02-02T08:28:18.259Z,5.89
2023-02-02T08:30:47.207Z,5.98
2023-02-02T08:33:15.451Z,6.04
2023-02-02T08:35:44.054Z,6.11
2023-02-02T08:38:14.406Z,6.10
2023-02-02T08:40:42.593Z,6.24
2023-02-02T08:43:11.855Z,6.28
2023-02-02T08:46:01.459Z,6.36
2023-02-02T08:49:29.422Z,6.35
2023-02-02T08:51:57.485Z,6.35
2023-02-02T08:54:25.540Z,6.40
2023-02-02T08:56:53.601Z,6.44
2023-02-02T08:59:21.720Z,6.52
2023-02-02T09:01:50.002Z,6.56
2023-02-02T09:04:18.086Z,6.57
2023-02-02T09:06:47.811Z,6.68
2023-02-02T09:09:18.507Z,6.62
2023-02-02T09:11:49.495Z,6.66
2023-02-02T09:14:17.426Z,6.78
2023-02-02T09:16:45.870Z,6.78
2023-02-02T09:19:13.908Z,6.84
2023-02-02T09:21:42.185Z,6.89
2023-02-02T09:24:13.898Z,6.99
2023-02-02T09:26:43.584Z,6.93
2023-02-02T09:29:14.603Z,6.86
2023-02-02T09:31:43.522Z,6.82
2023-02-02T09:34:13.068Z,6.80
2023-02-02T09:36:45.195Z,6.80
2023-02-02T09:39:16.578Z,6.83
2023-02-02T09:42:22.154Z,6.86
2023-02-02T09:44:59.646Z,6.89
2023-02-02T09:47:52.356Z,6.93
2023-02-02T09:50:32.082Z,6.96
2023-02-02T09:53:07.937Z,6.90
2023-02-02T09:55:42.377Z,6.88
2023-02-02T09:58:17.774Z,6.93
2023-02-02T10:00:54.193Z,6.93
2023-02-02T10:03:33.050Z,6.95
2023-02-02T10:06:13.564Z,6.86
2023-02-02T10:08:45.570Z,6.83
2023-02-02T10:11:30.811Z,6.87
2023-02-02T10:14:07.312Z,6.91
2023-02-02T10:16:38.950Z,6.86
2023-02-02T10:19:12.019Z,6.82
2023-02-02T10:21:50.167Z,6.84
2023-02-02T10:24:20.957Z,6.94
2023-02-02T10:26:53.955Z,6.90
2023-02-02T10:29:48.038Z,6.95
2023-02-02T10:32:24.077Z,6.99
2023-02-02T10:35:13.784Z,7.05
2023-02-02T10:37:50.369Z,7.09
2023-02-02T10:40:36.746Z,7.09
2023-02-02T10:43:39.518Z,7.19
2023-02-02T10:46:14.280Z,7.18
2023-02-02T10:48:46.552Z,7.21
2023-02-02T10:51:21.094Z,7.21
2023-02-02T10:53:53.794Z,7.21
2023-02-02T10:56:26.402Z,7.30
2023-02-02T10:59:02.723Z,7.40
2023-02-02T11:01:30.817Z,7.64
2023-02-02T11:04:16.756Z,7.79
2023-02-02T11:06:50.562Z,8.05
2023-02-02T11:09:22.254Z,8.20
2023-02-02T11:11:55.679Z,8.26
2023-02-02T11:14:41.829Z,8.32
2023-02-02T11:17:21.337Z,8.53
2023-02-02T11:19:50.911Z,8.83
2023-02-02T11:22:29.505Z,8.64
2023-02-02T11:24:59.406Z,9.00
2023-02-02T11:27:29.383Z,8.95
2023-02-02T11:30:11.157Z,9.08
2023-02-02T11:32:39.262Z,9.00
2023-02-02T11:35:20.977Z,8.99
2023-02-02T11:37:58.431Z,9.06
2023-02-02T11:40:33.210Z,9.15
2023-02-02T11:43:04.806Z,9.10
2023-02-02T11:45:39.445Z,8.92
2023-02-02T11:48:16.809Z,9.14
2023-02-02T11:50:48.934Z,9.18
2023-02-02T11:53:25.647Z,9.36
2023-02-02T11:55:54.789Z,9.38
2023-02-02T11:58:27.598Z,9.59
2023-02-02T12:01:00.622Z,9.66
2023-02-02T12:03:35.406Z,10.10
2023-02-02T12:06:19.996Z,10.03
2023-02-02T12:08:48.599Z,10.45
2023-02-02T12:11:35.525Z,10.69
2023-02-02T12:14:29.061Z,11.23
2023-02-02T12:17:11.779Z,11.19
2023-02-02T12:19:57.084Z,10.99
2023-02-02T12:22:42.852Z,10.50
2023-02-02T12:25:32.472Z,10.00
2023-02-02T12:28:06.197Z,9.75
2023-02-02T12:30:43.849Z,9.65
2023-02-02T12:33:35.579Z,9.37
2023-02-02T12:36:23.085Z,9.57
2023-02-02T12:39:18.935Z,9.50
2023-02-02T12:42:18.059Z,9.63
2023-02-02T12:44:58.149Z,10.11
2023-02-02T12:47:31.544Z,10.42
2023-02-02T12:50:18.514Z,10.41
2023-02-02T12:53:02.889Z,10.52
2023-02-02T12:55:38.739Z,10.57
2023-02-02T12:58:20.469Z,10.63
2023-02-02T13:01:13.392Z,10.61
2023-02-02T13:03:55.542Z,10.50
2023-02-02T13:06:56.372Z,10.57
2023-02-02T13:09:31.307Z,10.48
2023-02-02T13:12:07.797Z,10.37
2023-02-02T13:14:39.323Z,10.28
2023-02-02T13:17:12.961Z,10.19
2023-02-02T13:19:44.355Z,10.02
2023-02-02T13:22:20.283Z,10.26
2023-02-02T13:24:54.879Z,10.39
2023-02-02T13:27:24.947Z,10.34
2023-02-02T13:29:55.415Z,10.26
2023-02-02T13:32:28.203Z,10.23
2023-02-02T13:35:04.494Z,10.29
2023-02-02T13:37:41.168Z,10.42
2023-02-02T13:40:26.586Z,10.05
2023-02-02T13:42:58.888Z,10.06
2023-02-02T13:45:42.997Z,10.19
2023-02-02T13:50:46.682Z,10.26
2023-02-02T13:53:46.256Z,10.16
2023-02-02T13:56:36.037Z,10.17
2023-02-02T13:59:48.972Z,10.02
2023-02-02T14:02:26.810Z,9.82
2023-02-02T14:04:57.507Z,9.68
2023-02-02T14:07:40.774Z,9.42
2023-02-02T14:10:25.457Z,9.32
2023-02-02T14:12:54.996Z,9.24
2023-02-02T14:15:39.259Z,9.30
2023-02-02T14:18:08.111Z,9.33
2023-02-02T14:20:47.806Z,9.22
2023-02-02T14:23:55.520Z,9.10
2023-02-02T14:26:44.436Z,9.02
2023-02-02T14:29:39.514Z,9.05
2023-02-02T14:32:42.587Z,9.01
2023-02-02T14:35:44.189Z,8.88
2023-02-02T14:38:19.809Z,8.96
2023-02-02T14:41:00.330Z,8.94
2023-02-02T14:43:46.479Z,9.06
2023-02-02T14:46:25.127Z,8.99
2023-02-02T14:49:17.808Z,8.91
2023-02-02T14:51:55.379Z,8.90
2023-02-02T14:54:28.078Z,8.74
2023-02-02T14:57:01.710Z,8.65
2023-02-02T14:59:34.691Z,8.65
2023-02-02T15:02:11.529Z,8.55
2023-02-02T15:04:42.480Z,8.47
2023-02-02T15:07:51.413Z,8.36
2023-02-02T15:10:54.065Z,8.26
2023-02-02T15:13:26.711Z,8.20
2023-02-02T15:16:07.639Z,8.12
2023-02-02T15:18:44.327Z,8.04
2023-02-02T15:21:17.663Z,7.97
2023-02-02T15:23:47.717Z,7.92
2023-02-02T15:26:21.630Z,7.92
2023-02-02T15:28:57.189Z,7.83
2023-02-02T15:31:30.825Z,7.80
2023-02-02T15:34:02.047Z,7.84
2023-02-02T15:36:34.141Z,7.81
2023-02-02T15:39:11.999Z,7.83
2023-02-02T15:41:44.826Z,7.79
2023-02-02T15:44:29.968Z,7.77
2023-02-02T15:46:59.409Z,7.77
2023-02-02T15:49:34.640Z,7.74
2023-02-02T15:52:14.653Z,7.64
2023-02-02T15:54:52.885Z,7.59
2023-02-02T15:57:28.593Z,7.52
2023-02-02T15:59:57.944Z,7.51
2023-02-02T16:02:38.132Z,7.46
2023-02-02T16:05:25.205Z,7.49
2023-02-02T16:08:05.692Z,7.47
2023-02-02T16:10:35.102Z,7.47
2023-02-02T16:13:04.801Z,7.36
2023-02-02T16:15:34.570Z,7.33
2023-02-02T16:18:04.830Z,7.32
2023-02-02T16:20:35.840Z,7.32
2023-02-02T16:23:07.064Z,7.28
2023-02-02T16:25:42.944Z,7.25
2023-02-02T16:28:15.238Z,7.19
2023-02-02T16:30:45.979Z,7.18
2023-02-02T16:33:30.567Z,7.17
2023-02-02T16:35:58.678Z,7.12
2023-02-02T16:38:34.068Z,7.07
2023-02-02T16:41:07.536Z,6.97
2023-02-02T16:43:36.738Z,7.06
2023-02-02T16:46:09.896Z,6.99
2023-02-02T16:48:40.573Z,6.99
2023-02-02T16:51:22.934Z,6.99
2023-02-02T16:53:59.992Z,6.93
2023-02-02T16:56:34.136Z,6.92
2023-02-02T16:59:06.596Z,6.89
2023-02-02T17:01:40.375Z,6.88
2023-02-02T17:04:19.154Z,6.93
2023-02-02T17:06:52.735Z,6.88
2023-02-02T17:09:35.797Z,6.85
2023-02-02T17:12:14.322Z,6.85
2023-02-02T17:14:53.778Z,6.83
2023-02-02T17:17:26.110Z,6.83
2023-02-02T17:19:55.159Z,6.75
2023-02-02T17:22:24.947Z,6.74
2023-02-02T17:24:54.169Z,6.71
2023-02-02T17:27:27.971Z,6.66
2023-02-02T17:29:57.924Z,6.67
2023-02-02T17:32:29.689Z,6.63
2023-02-02T17:34:58.533Z,6.55
2023-02-02T17:37:29.071Z,6.53
2023-02-02T17:39:57.336Z,6.47
2023-02-02T17:42:27.518Z,6.44
2023-02-02T17:45:01.602Z,6.43
2023-02-02T17:47:31.444Z,6.40
2023-02-02T17:50:00.597Z,6.34
2023-02-02T17:52:28.764Z,6.43
2023-02-02T17:54:57.141Z,6.41
2023-02-02T17:57:25.476Z,6.30
2023-02-02T17:59:54.566Z,6.34
2023-02-02T18:02:23.596Z,6.34
2023-02-02T18:04:53.540Z,6.31
2023-02-02T18:07:24.318Z,6.29
2023-02-02T18:09:55.967Z,6.29
2023-02-02T18:12:24.784Z,6.22
2023-02-02T18:14:52.983Z,6.23
2023-02-02T18:17:21.529Z,6.22
2023-02-02T18:19:51.243Z,6.21
2023-02-02T18:22:20.948Z,6.22
2023-02-02T18:24:49.512Z,6.22
2023-02-02T18:27:20.518Z,6.18
2023-02-02T18:29:53.218Z,6.14
2023-02-02T18:32:24.647Z,6.14
2023-02-02T18:34:55.814Z,6.19
2023-02-02T18:37:27.951Z,6.11
2023-02-02T18:39:56.097Z,6.12
2023-02-02T18:42:26.256Z,6.10
2023-02-02T18:44:54.539Z,5.98
2023-02-02T18:47:22.826Z,6.07
2023-02-02T18:51:34.248Z,6.03
2023-02-02T18:54:02.558Z,5.99
2023-02-02T18:56:31.543Z,5.95
2023-02-02T18:59:00.072Z,5.92
2023-02-02T19:01:32.086Z,5.90
2023-02-02T19:04:01.467Z,5.88
2023-02-02T19:06:47.408Z,5.88
2023-02-02T19:09:17.472Z,5.90
2023-02-02T19:11:47.935Z,5.91
2023-02-02T19:14:18.372Z,5.92
2023-02-02T19:16:49.314Z,5.88
2023-02-02T19:19:25.605Z,5.88
2023-02-02T19:21:58.620Z,5.88
2023-02-02T19:24:29.830Z,5.87
2023-02-02T19:26:58.102Z,5.89
2023-02-02T19:29:30.328Z,5.90
2023-02-02T19:32:03.652Z,5.77
2023-02-02T19:34:34.770Z,5.93
2023-02-02T19:37:19.704Z,5.94
2023-02-02T19:39:50.194Z,5.93
2023-02-02T19:42:18.526Z,5.96
2023-02-02T19:44:48.791Z,5.98
2023-02-02T19:47:25.729Z,5.94
2023-02-02T19:49:53.856Z,5.96
2023-02-02T19:52:25.605Z,5.95
2023-02-02T19:54:55.371Z,5.93
2023-02-02T19:57:36.290Z,6.00
2023-02-02T20:00:19.538Z,6.03
2023-02-02T20:02:58.521Z,6.01
2023-02-02T20:05:30.243Z,5.93
2023-02-02T20:08:01.706Z,5.97
2023-02-02T20:10:39.486Z,6.01
2023-02-02T20:13:17.559Z,6.01
2023-02-02T20:15:51.269Z,5.99
2023-02-02T20:18:22.448Z,6.02
2023-02-02T20:20:53.735Z,6.02
2023-02-02T20:23:37.143Z,5.99
2023-02-02T20:26:18.025Z,6.02
2023-02-02T20:28:47.127Z,5.97
2023-02-02T20:31:17.905Z,5.99
2023-02-02T20:33:49.006Z,5.96
2023-02-02T20:36:35.638Z,5.99
2023-02-02T20:39:24.929Z,5.98
2023-02-02T20:41:57.183Z,5.97
2023-02-02T20:44:29.339Z,5.97
2023-02-02T20:47:00.871Z,6.02
2023-02-02T20:49:31.794Z,6.03
2023-02-02T20:52:04.207Z,6.09
2023-02-02T20:54:33.347Z,6.09
2023-02-02T20:57:03.107Z,6.09
2023-02-02T20:59:31.142Z,6.09
2023-02-02T21:02:02.700Z,6.12
2023-02-02T21:04:33.663Z,6.09
2023-02-02T21:07:02.073Z,6.12
2023-02-02T21:09:30.140Z,6.09
2023-02-02T21:11:58.402Z,6.10
2023-02-02T21:14:33.332Z,6.11
2023-02-02T21:17:13.973Z,6.08
2023-02-02T21:19:50.864Z,6.12
2023-02-02T21:22:21.154Z,6.09
2023-02-02T21:24:49.217Z,6.10
2023-02-02T21:27:19.913Z,6.11
2023-02-02T21:29:49.904Z,6.08
2023-02-02T21:32:17.973Z,6.08
2023-02-02T21:34:46.101Z,6.10
2023-02-02T21:37:18.926Z,6.13
2023-02-02T21:39:50.889Z,6.13
2023-02-02T21:42:21.037Z,6.10
2023-02-02T21:44:56.371Z,6.09
2023-02-02T21:47:30.009Z,6.06
2023-02-02T21:50:00.173Z,6.09
2023-02-02T21:52:34.171Z,6.12
2023-02-02T21:55:23.586Z,6.11
2023-02-02T21:57:51.915Z,6.10
2023-02-02T22:00:26.323Z,6.04
2023-02-02T22:02:58.941Z,6.04
2023-02-02T22:05:35.392Z,6.08
2023-02-02T22:08:18.767Z,6.06
2023-02-02T22:10:48.617Z,6.03
2023-02-02T22:13:18.794Z,5.99
2023-02-02T22:15:52.004Z,5.95
2023-02-02T22:18:21.744Z,5.93
2023-02-02T22:20:50.904Z,5.91
2023-02-02T22:23:21.132Z,5.96
2023-02-02T22:25:54.542Z,5.91
2023-02-02T22:28:25.992Z,5.86
2023-02-02T22:30:57.228Z,5.83
2023-02-02T22:33:26.784Z,5.88
2023-02-02T22:35:55.300Z,5.85
2023-02-02T22:38:25.547Z,5.84
2023-02-02T22:40:54.334Z,5.88
2023-02-02T22:43:22.778Z,5.92
2023-02-02T22:45:50.795Z,5.94
2023-02-02T22:48:22.276Z,5.88
2023-02-02T22:50:50.200Z,5.87
2023-02-02T22:53:18.170Z,5.86
2023-02-02T22:55:46.090Z,5.79
2023-02-02T22:58:14.323Z,5.75
2023-02-02T23:00:42.279Z,5.81
2023-02-02T23:03:10.496Z,5.78
2023-02-02T23:05:40.300Z,5.78
2023-02-02T23:08:08.324Z,5.80
2023-02-02T23:10:38.900Z,5.74
2023-02-02T23:13:10.160Z,5.80
2023-02-02T23:15:38.172Z,5.80
2023-02-02T23:18:08.546Z,5.78
2023-02-02T23:20:36.567Z,5.76
2023-02-02T23:23:08.840Z,5.72
2023-02-02T23:25:39.228Z,5.69
2023-02-02T23:28:09.585Z,5.67
2023-02-02T23:30:40.241Z,5.64
2023-02-02T23:33:08.272Z,5.58
2023-02-02T23:35:36.554Z,5.56
2023-02-02T23:38:04.561Z,5.55
2023-02-02T23:40:33.962Z,5.56
2023-02-02T23:43:02.023Z,5.61
2023-02-02T23:45:30.038Z,5.62
2023-02-02T23:48:00.256Z,5.60
2023-02-02T23:52:34.107Z,5.59
2023-02-02T23:55:03.834Z,5.63
2023-02-02T23:57:33.715Z,5.57
